Time;durP1;ratioP1;P1;durP2;ratioP2;P2;SDS_P1;SDS_P2;PMS_P1;PMS_P2;Temp;Humidity;BMP_temperature;BMP_pressure;BME280_temperature;BME280_humidity;BME280_pressure;Samples;Min_cycle;Max_cycle;Signal;HPM_P1;HPM_P2
2022/02/08 05:02:17;;;;;;;15.80;9.40;;;5.80;99.90;;;;;;5221430;23;20247;-68
2022/02/08 05:35:31;;;;;;;16.13;8.57;;;6.30;99.90;;;;;;4938172;29;20208;-67
2022/02/08 05:43:27;;;;;;;9.23;7.85;;;6.40;99.90;;;;;;4941402;28;20192;-67
2022/02/08 05:46:35;;;;;;;6.40;5.80;;;6.40;99.90;;;;;;4934375;29;20638;-67
2022/02/08 05:49:03;;;;;;;8.27;5.78;;;6.40;99.90;;;;;;4952483;29;20287;-68
2022/02/08 05:51:55;;;;;;;11.73;7.32;;;6.50;99.90;;;;;;4948783;29;20224;-68
2022/02/08 05:54:21;;;;;;;9.98;7.10;;;6.50;99.90;;;;;;4952146;29;20205;-66
2022/02/08 05:56:52;;;;;;;10.13;8.65;;;6.60;99.90;;;;;;4948382;28;20217;-66
2022/02/08 05:59:19;;;;;;;9.73;8.13;;;6.60;99.90;;;;;;4952826;28;20267;-67
2022/02/08 06:01:46;;;;;;;8.00;6.70;;;6.60;99.90;;;;;;4951293;28;20233;-66
2022/02/08 06:04:12;;;;;;;12.70;8.00;;;6.60;99.90;;;;;;4951784;28;20951;-67
2022/02/08 06:06:41;;;;;;;10.55;7.80;;;6.70;99.90;;;;;;4945334;28;20678;-66
2022/02/08 06:09:08;;;;;;;10.80;7.38;;;6.70;99.90;;;;;;4951787;29;20292;-67
2022/02/08 06:11:36;;;;;;;13.18;7.95;;;6.70;99.90;;;;;;4951208;28;20225;-67
2022/02/08 06:14:03;;;;;;;11.77;8.65;;;6.70;99.90;;;;;;4941885;28;20205;-67
2022/02/08 06:16:30;;;;;;;11.55;8.63;;;6.70;99.90;;;;;;4944980;29;20252;-67
2022/02/08 06:18:57;;;;;;;22.35;9.63;;;6.80;99.90;;;;;;4950424;29;20320;-67
2022/02/08 06:21:24;;;;;;;14.98;9.93;;;6.80;99.90;;;;;;4951272;29;20224;-67
2022/02/08 06:23:52;;;;;;;17.95;10.00;;;6.80;99.90;;;;;;4949198;28;20208;-68
2022/02/08 06:26:21;;;;;;;18.40;10.55;;;6.80;99.90;;;;;;4949780;29;20580;-67
2022/02/08 06:28:56;;;;;;;14.75;9.70;;;6.80;99.90;;;;;;4951837;29;20209;-67
2022/02/08 06:31:23;;;;;;;20.95;10.57;;;6.80;99.90;;;;;;4947616;28;20234;-67
2022/02/08 06:33:50;;;;;;;17.35;10.18;;;6.90;99.90;;;;;;4949225;29;20236;-68
2022/02/08 06:36:17;;;;;;;16.98;8.73;;;6.90;99.90;;;;;;4932989;29;20210;-68
2022/02/08 06:38:43;;;;;;;13.57;10.60;;;6.90;99.90;;;;;;4946067;29;20252;-68
2022/02/08 06:41:13;;;;;;;16.45;9.48;;;6.90;99.90;;;;;;4932684;29;20256;-67
2022/02/08 06:43:39;;;;;;;12.05;9.60;;;6.90;99.90;;;;;;4944143;29;20213;-67
2022/02/08 06:46:06;;;;;;;18.63;11.20;;;6.90;99.90;;;;;;4939419;29;20210;-67
2022/02/08 06:48:33;;;;;;;21.83;13.30;;;7.00;99.90;;;;;;4944874;29;20678;-68
2022/02/08 06:50:59;;;;;;;20.95;11.90;;;7.00;99.90;;;;;;4942322;29;20228;-68
2022/02/08 06:53:27;;;;;;;18.52;13.60;;;7.10;99.90;;;;;;4947532;28;20548;-67
2022/02/08 06:55:54;;;;;;;20.27;13.50;;;7.20;99.90;;;;;;4934501;29;20206;-67
2022/02/08 06:58:25;;;;;;;17.33;12.15;;;7.20;99.90;;;;;;4950450;29;20308;-66
2022/02/08 07:00:58;;;;;;;18.38;11.88;;;7.20;99.90;;;;;;4944579;28;20242;-67
2022/02/08 07:03:25;;;;;;;19.50;11.57;;;7.20;99.90;;;;;;4945363;29;20305;-68
2022/02/08 07:05:52;;;;;;;24.35;12.43;;;7.10;99.90;;;;;;4949735;29;20646;-67
2022/02/08 07:08:18;;;;;;;16.13;11.27;;;7.10;99.90;;;;;;4943448;28;20289;-66
2022/02/08 07:10:45;;;;;;;18.73;11.20;;;7.10;99.90;;;;;;4936375;29;20313;-67
2022/02/08 07:13:12;;;;;;;16.73;11.35;;;7.10;99.90;;;;;;4949364;29;20786;-67
2022/02/08 07:15:40;;;;;;;14.73;11.43;;;7.10;99.90;;;;;;4959193;29;20217;-67
2022/02/08 07:18:06;;;;;;;19.70;12.88;;;7.20;99.90;;;;;;4959695;28;20221;-67
2022/02/08 07:20:34;;;;;;;22.15;12.10;;;7.10;99.90;;;;;;4947668;29;20225;-67
2022/02/08 07:23:00;;;;;;;19.38;11.73;;;7.10;99.90;;;;;;4940563;28;20206;-67
2022/02/08 07:25:27;;;;;;;20.63;12.07;;;7.20;99.90;;;;;;4936795;29;20210;-67
2022/02/08 07:27:54;;;;;;;26.98;13.88;;;7.20;99.90;;;;;;4937471;29;20666;-67
2022/02/08 07:30:21;;;;;;;26.40;13.27;;;7.20;99.90;;;;;;4945953;29;20620;-67
2022/02/08 07:32:53;;;;;;;20.70;13.35;;;7.30;99.90;;;;;;4949030;29;20301;-68
2022/02/08 07:35:27;;;;;;;18.67;12.40;;;7.30;99.90;;;;;;4948406;29;20320;-67
2022/02/08 07:38:03;;;;;;;17.70;10.18;;;7.30;99.90;;;;;;4942726;29;20339;-67
2022/02/08 07:40:44;;;;;;;21.52;12.95;;;7.40;99.90;;;;;;4940659;29;20205;-66
2022/02/08 07:43:11;;;;;;;22.98;12.63;;;7.40;99.90;;;;;;4948773;29;20247;-67
2022/02/08 07:45:37;;;;;;;22.92;13.45;;;7.40;99.90;;;;;;4947793;29;20239;-66
2022/02/08 07:48:06;;;;;;;21.50;13.15;;;7.40;99.90;;;;;;4946032;28;20202;-67
2022/02/08 07:50:38;;;;;;;25.52;15.00;;;7.50;99.90;;;;;;4947149;29;20231;-67
2022/02/08 07:53:05;;;;;;;24.42;12.77;;;7.50;99.90;;;;;;4949811;28;20227;-66
2022/02/08 07:55:31;;;;;;;22.58;13.07;;;7.50;99.90;;;;;;4947362;29;20220;-65
2022/02/08 07:57:58;;;;;;;20.92;12.70;;;7.50;99.90;;;;;;4937723;28;20987;-65
2022/02/08 08:00:25;;;;;;;23.50;14.60;;;7.60;99.90;;;;;;4937185;29;20255;-67
2022/02/08 08:02:53;;;;;;;19.92;12.50;;;7.60;99.90;;;;;;4937179;28;20217;-65
2022/02/08 08:05:21;;;;;;;23.17;12.25;;;7.60;99.90;;;;;;4936409;29;20226;-66
2022/02/08 08:07:48;;;;;;;20.60;13.38;;;7.70;99.90;;;;;;4943510;29;20210;-66
2022/02/08 08:10:18;;;;;;;20.13;12.60;;;7.70;99.90;;;;;;4948233;28;20205;-65
2022/02/08 08:12:47;;;;;;;22.52;13.13;;;7.70;99.90;;;;;;4945706;29;20209;-65
2022/02/08 08:15:27;;;;;;;17.65;11.00;;;7.70;99.90;;;;;;4954081;29;20205;-65
2022/02/08 08:17:58;;;;;;;20.98;12.65;;;7.80;99.90;;;;;;4948087;29;20280;-67
2022/02/08 08:20:26;;;;;;;23.73;12.27;;;7.80;99.90;;;;;;4941595;28;20237;-66
2022/02/08 08:22:53;;;;;;;21.08;13.05;;;7.80;99.90;;;;;;4938778;29;20300;-67
2022/02/08 08:25:20;;;;;;;17.02;12.60;;;7.90;99.90;;;;;;4939152;29;20202;-67
2022/02/08 08:27:46;;;;;;;23.42;14.18;;;7.80;99.90;;;;;;4940365;29;20325;-66
2022/02/08 08:30:13;;;;;;;24.92;14.85;;;7.90;99.90;;;;;;4948302;29;20467;-66
2022/02/08 08:32:42;;;;;;;21.20;13.18;;;7.90;99.90;;;;;;4948090;29;20205;-66
2022/02/08 08:35:10;;;;;;;27.25;13.80;;;8.00;99.90;;;;;;4952656;28;20208;-66
2022/02/08 08:37:41;;;;;;;26.40;12.88;;;8.00;99.90;;;;;;4953684;28;20252;-66
2022/02/08 08:40:17;;;;;;;25.67;15.27;;;7.90;99.90;;;;;;4954032;28;20273;-66
2022/02/08 08:42:53;;;;;;;18.70;12.63;;;7.90;99.90;;;;;;4951312;28;20205;-66
2022/02/08 08:51:01;;;;;;;16.65;11.82;;;7.90;99.90;;;;;;4946435;29;20291;-65
2022/02/08 08:53:32;;;;;;;20.05;11.15;;;7.90;99.90;;;;;;4951347;29;20204;-65
2022/02/08 08:55:59;;;;;;;16.55;12.20;;;8.00;99.90;;;;;;4937763;28;20214;-66
2022/02/08 08:58:28;;;;;;;21.35;11.45;;;8.00;99.90;;;;;;4938555;29;20626;-67
2022/02/08 09:00:55;;;;;;;15.27;11.20;;;8.00;99.90;;;;;;4953181;29;20325;-66
2022/02/08 09:03:21;;;;;;;18.52;11.38;;;8.00;99.90;;;;;;4946974;29;20208;-67
2022/02/08 09:05:48;;;;;;;23.92;12.57;;;8.10;99.90;;;;;;4953491;28;20306;-68
2022/02/08 09:08:15;;;;;;;20.80;11.95;;;8.10;99.90;;;;;;4941109;28;20682;-67
2022/02/08 09:10:50;;;;;;;17.55;11.77;;;8.10;99.90;;;;;;4933419;29;20545;-66
2022/02/08 09:13:25;;;;;;;16.35;11.40;;;8.10;99.90;;;;;;4943800;29;20205;-66
2022/02/08 09:16:02;;;;;;;16.92;11.55;;;8.20;99.90;;;;;;4944842;29;20291;-66
2022/02/08 09:21:39;;;;;;;16.88;11.20;;;8.10;99.90;;;;;;4941911;28;20617;-66
2022/02/08 09:27:10;;;;;;;18.50;11.05;;;8.20;99.90;;;;;;4952669;29;20207;-66
2022/02/08 09:29:42;;;;;;;18.90;9.95;;;8.20;99.90;;;;;;4951156;28;20278;-67
2022/02/08 09:32:17;;;;;;;17.55;11.30;;;8.20;99.90;;;;;;4948087;28;20229;-67
2022/02/08 09:34:45;;;;;;;15.10;10.40;;;8.20;99.90;;;;;;4951997;28;20678;-67
2022/02/08 09:37:14;;;;;;;14.80;10.00;;;8.30;99.90;;;;;;4947030;28;20202;-66
2022/02/08 09:39:43;;;;;;;16.40;10.48;;;8.30;99.90;;;;;;4933244;29;20567;-66
2022/02/08 09:42:12;;;;;;;15.82;9.85;;;8.30;99.90;;;;;;4938171;29;20229;-66
2022/02/08 09:44:39;;;;;;;14.73;9.80;;;8.30;99.90;;;;;;4946741;29;20292;-66
2022/02/08 09:47:11;;;;;;;14.10;8.85;;;8.40;99.90;;;;;;4951383;29;20206;-67
2022/02/08 09:49:42;;;;;;;14.48;8.80;;;8.40;99.90;;;;;;4950036;29;20201;-67
2022/02/08 09:52:10;;;;;;;11.73;8.88;;;8.50;99.90;;;;;;4952618;29;20610;-66
2022/02/08 09:54:37;;;;;;;13.90;9.18;;;8.50;99.90;;;;;;4948087;29;20281;-66
2022/02/08 09:57:04;;;;;;;12.15;8.43;;;8.50;99.90;;;;;;4951750;28;20299;-67
2022/02/08 09:59:34;;;;;;;20.88;8.15;;;8.60;99.90;;;;;;4951541;28;20289;-67
2022/02/08 10:02:01;;;;;;;9.05;7.47;;;8.70;99.90;;;;;;4952391;29;20593;-67
2022/02/08 10:04:28;;;;;;;9.27;7.13;;;8.80;99.90;;;;;;4949839;29;20205;-67
2022/02/08 10:06:55;;;;;;;8.35;6.97;;;8.80;99.90;;;;;;4942506;29;20210;-67
2022/02/08 10:09:31;;;;;;;7.03;6.32;;;8.90;99.90;;;;;;4933482;29;20241;-67
2022/02/08 10:11:59;;;;;;;10.18;6.13;;;8.90;99.90;;;;;;4941866;29;20264;-67
2022/02/08 10:14:39;;;;;;;7.50;5.88;;;8.90;99.90;;;;;;4949276;29;20295;-67
2022/02/08 10:22:44;;;;;;;7.30;6.60;;;8.90;99.90;;;;;;4950895;29;20251;-67
2022/02/08 10:25:16;;;;;;;7.28;5.75;;;8.90;99.90;;;;;;4951785;29;20209;-67
2022/02/08 10:27:49;;;;;;;9.02;6.57;;;9.00;99.90;;;;;;4936796;29;20206;-66
2022/02/08 10:30:43;;;;;;;6.88;6.15;;;9.00;99.90;;;;;;4940288;29;20236;-66
2022/02/08 10:38:41;;;;;;;7.38;5.85;;;8.90;99.90;;;;;;4932763;29;20233;-66
2022/02/08 10:41:12;;;;;;;6.78;6.15;;;8.90;99.90;;;;;;4951270;28;20229;-66
2022/02/08 10:43:40;;;;;;;7.55;5.78;;;8.90;99.90;;;;;;4946014;28;20213;-66
2022/02/08 10:46:18;;;;;;;5.72;5.22;;;9.00;99.90;;;;;;4940456;29;20233;-66
2022/02/08 10:48:46;;;;;;;8.48;7.05;;;9.00;99.90;;;;;;4955750;28;20303;-66
2022/02/08 10:51:15;;;;;;;6.60;6.00;;;9.00;99.90;;;;;;4954254;28;20232;-67
2022/02/08 10:53:53;;;;;;;6.35;5.75;;;8.90;99.90;;;;;;4943086;29;20219;-66
2022/02/08 10:56:24;;;;;;;14.80;10.88;;;8.90;99.90;;;;;;4936395;29;20205;-66
2022/02/08 10:58:55;;;;;;;7.88;5.80;;;8.90;99.90;;;;;;4942678;29;20556;-66
2022/02/08 11:01:27;;;;;;;6.30;5.47;;;9.00;99.90;;;;;;4955002;28;20721;-66
2022/02/08 11:04:00;;;;;;;8.65;4.22;;;9.00;99.90;;;;;;4955477;28;20678;-66
2022/02/08 11:06:31;;;;;;;5.15;4.65;;;8.90;99.90;;;;;;4955633;28;20223;-68
2022/02/08 11:11:45;;;;;;;5.30;4.90;;;9.00;99.90;;;;;;4935762;29;20235;-65
2022/02/08 11:14:30;;;;;;;6.07;4.10;;;9.00;99.90;;;;;;4949645;29;20240;-66
2022/02/08 11:20:02;;;;;;;9.10;6.20;;;9.00;99.90;;;;;;4924039;29;20242;-66
2022/02/08 11:22:41;;;;;;;5.05;4.70;;;9.00;99.90;;;;;;4955626;28;20229;-67
2022/02/08 11:25:18;;;;;;;6.78;6.10;;;9.00;99.90;;;;;;4953711;29;20694;-65
2022/02/08 11:27:50;;;;;;;6.30;4.78;;;9.00;99.90;;;;;;4947528;29;20209;-66
2022/02/08 11:30:27;;;;;;;4.95;4.50;;;9.00;99.90;;;;;;4937671;28;20206;-66
2022/02/08 11:33:12;;;;;;;7.35;5.75;;;9.10;99.90;;;;;;4960449;28;20233;-66
2022/02/08 11:46:58;;;;;;;6.30;5.40;;;9.10;99.90;;;;;;4938794;29;20308;-66
2022/02/08 11:49:42;;;;;;;5.03;4.43;;;9.10;99.90;;;;;;4950463;28;20623;-66
2022/02/08 11:52:25;;;;;;;7.05;6.15;;;9.10;99.90;;;;;;4939496;29;20272;-66
2022/02/08 12:00:21;;;;;;;7.00;4.20;;;9.20;99.90;;;;;;4953770;29;20256;-65
2022/02/08 12:03:01;;;;;;;3.92;3.72;;;9.20;99.90;;;;;;4951039;29;20232;-66
2022/02/08 12:05:38;;;;;;;9.10;3.50;;;9.20;99.90;;;;;;4935459;29;20218;-67
2022/02/08 12:08:13;;;;;;;5.30;4.10;;;9.20;99.90;;;;;;4939628;29;20210;-65
2022/02/08 12:10:44;;;;;;;3.40;3.20;;;9.20;99.90;;;;;;4942875;29;20650;-66
2022/02/08 12:13:29;;;;;;;4.68;4.30;;;9.20;99.90;;;;;;4953656;28;20742;-67
2022/02/08 12:30:46;;;;;;;4.65;4.32;;;9.20;99.90;;;;;;4952294;29;20256;-66
2022/02/08 12:33:09;;;;;;;4.30;3.90;;;9.20;99.90;;;;;;4948372;29;20889;-66
2022/02/08 12:35:58;;;;;;;3.03;2.92;;;9.20;99.90;;;;;;4952395;29;20297;-66
2022/02/08 12:50:15;;;;;;;4.00;3.70;;;9.20;99.90;;;;;;4948632;28;20259;-67
2022/02/08 12:55:43;;;;;;;5.32;4.82;;;9.20;99.90;;;;;;4940463;29;20735;-67
2022/02/08 12:58:37;;;;;;;3.65;3.45;;;9.20;99.90;;;;;;4957165;28;20240;-66
2022/02/08 13:01:34;;;;;;;4.10;3.90;;;9.30;99.90;;;;;;4935722;29;20252;-66
2022/02/08 13:04:09;;;;;;;4.30;3.67;;;9.20;99.90;;;;;;4948107;28;20202;-66
2022/02/08 13:32:56;;;;;;;8.13;5.25;;;9.20;99.90;;;;;;4933848;29;20364;-66
2022/02/08 14:03:07;;;;;;;4.25;3.95;;;9.20;99.90;;;;;;4956950;28;20764;-66
2022/02/08 14:05:57;;;;;;;10.93;6.80;;;9.20;99.90;;;;;;4948717;29;20207;-68
2022/02/08 14:08:40;;;;;;;6.75;3.80;;;9.20;99.90;;;;;;4943134;28;20324;-66
2022/02/08 14:11:26;;;;;;;4.22;4.03;;;9.20;99.90;;;;;;4947523;29;20236;-66
2022/02/08 14:17:25;;;;;;;7.45;3.00;;;9.20;99.90;;;;;;4910647;29;20333;-67
2022/02/08 14:19:52;;;;;;;3.67;3.47;;;9.20;99.90;;;;;;4910078;29;20314;-67
2022/02/08 14:22:33;;;;;;;3.40;3.10;;;9.20;99.90;;;;;;4927010;28;20229;-66
2022/02/08 14:25:20;;;;;;;3.35;3.17;;;9.30;99.90;;;;;;4933660;29;20265;-68
2022/02/08 14:30:39;;;;;;;3.28;3.17;;;9.20;99.90;;;;;;4950673;29;20216;-66
2022/02/08 14:33:23;;;;;;;3.85;3.35;;;9.30;99.90;;;;;;4949796;28;20213;-66
2022/02/08 14:36:05;;;;;;;4.90;2.90;;;9.30;99.90;;;;;;4953617;28;20259;-66
2022/02/08 14:57:32;;;;;;;5.10;4.60;;;9.20;99.90;;;;;;4935822;28;20243;-67
2022/02/08 15:06:55;;;;;;;11.23;8.38;;;9.30;99.90;;;;;;4941076;28;20262;-66
2022/02/08 15:09:25;;;;;;;4.80;4.40;;;9.30;99.90;;;;;;4946456;28;20292;-66
2022/02/08 15:12:08;;;;;;;3.20;3.10;;;9.30;99.90;;;;;;4940367;28;20237;-67
2022/02/08 15:14:39;;;;;;;4.22;3.85;;;9.30;99.90;;;;;;4939248;28;20213;-67
2022/02/08 15:17:06;;;;;;;9.50;7.68;;;9.30;99.90;;;;;;4937415;28;20210;-68
2022/02/08 15:19:34;;;;;;;3.88;3.67;;;9.30;99.90;;;;;;4947098;29;20733;-67
2022/02/08 15:22:02;;;;;;;2.40;2.25;;;9.30;99.90;;;;;;4950375;28;20228;-65
2022/02/08 15:24:29;;;;;;;2.90;2.80;;;9.30;99.90;;;;;;4951598;28;20213;-65
2022/02/08 15:26:57;;;;;;;3.85;2.75;;;9.30;99.90;;;;;;4944155;28;20218;-66
2022/02/08 15:29:26;;;;;;;2.45;2.30;;;9.30;99.90;;;;;;4951427;28;20201;-67
2022/02/08 15:31:54;;;;;;;2.80;2.60;;;9.30;99.90;;;;;;4948125;28;20285;-66
2022/02/08 15:34:21;;;;;;;4.20;2.80;;;9.30;99.90;;;;;;4956527;28;20214;-67
2022/02/08 15:36:48;;;;;;;3.30;3.20;;;9.30;99.90;;;;;;4950574;28;20209;-66
2022/02/08 15:39:15;;;;;;;3.22;3.13;;;9.30;99.90;;;;;;4952260;29;20213;-67
2022/02/08 15:41:42;;;;;;;3.40;3.20;;;9.30;99.90;;;;;;4935761;29;20229;-67
2022/02/08 15:44:13;;;;;;;5.25;2.65;;;9.30;99.90;;;;;;4954006;28;20209;-66
2022/02/08 15:46:40;;;;;;;3.60;3.33;;;9.30;99.90;;;;;;4952690;28;20201;-66
2022/02/08 15:49:07;;;;;;;3.40;3.20;;;9.30;99.90;;;;;;4960459;28;20217;-66
2022/02/08 15:51:39;;;;;;;3.80;2.80;;;9.30;99.90;;;;;;4956557;28;20255;-66
2022/02/08 15:54:14;;;;;;;3.30;2.90;;;9.30;99.90;;;;;;4937338;29;20225;-66
2022/02/08 15:57:08;;;;;;;3.75;3.55;;;9.30;99.90;;;;;;4947912;28;20771;-67
2022/02/08 16:05:20;;;;;;;3.70;3.50;;;9.30;99.90;;;;;;4957270;28;20797;-66
2022/02/08 16:07:52;;;;;;;7.15;6.70;;;9.30;99.90;;;;;;4949589;28;20646;-67
2022/02/08 16:10:25;;;;;;;4.65;3.30;;;9.30;99.90;;;;;;4948407;28;20202;-66
2022/02/08 16:13:11;;;;;;;3.78;3.58;;;9.30;99.90;;;;;;4954183;28;20201;-65
2022/02/08 16:15:54;;;;;;;3.42;3.22;;;9.30;99.90;;;;;;4944798;28;20241;-67
2022/02/08 16:18:28;;;;;;;4.07;3.78;;;9.30;99.90;;;;;;4950950;29;20215;-67
2022/02/08 16:21:11;;;;;;;4.38;3.95;;;9.30;99.90;;;;;;4953825;29;20271;-67
2022/02/08 16:26:37;;;;;;;4.30;4.00;;;9.30;99.90;;;;;;4961736;28;20252;-66
2022/02/08 16:29:20;;;;;;;5.40;5.00;;;9.20;99.90;;;;;;4953239;28;20197;-66
2022/02/08 16:54:06;;;;;;;5.30;4.82;;;9.20;99.90;;;;;;4877867;29;20209;-66
2022/02/08 16:56:53;;;;;;;4.05;3.75;;;9.20;99.90;;;;;;4884880;29;20203;-67
2022/02/08 16:59:26;;;;;;;6.30;5.22;;;9.20;99.90;;;;;;4925515;28;20209;-66
2022/02/08 17:01:55;;;;;;;11.52;7.68;;;9.20;99.90;;;;;;4941949;28;20237;-66
2022/02/08 17:04:24;;;;;;;7.28;6.00;;;9.20;99.90;;;;;;4947436;28;20939;-68
2022/02/08 17:06:50;;;;;;;4.20;3.90;;;9.20;99.90;;;;;;4947744;28;20279;-66
2022/02/08 17:09:22;;;;;;;3.50;3.20;;;9.10;99.90;;;;;;4945179;28;20255;-66
2022/02/08 17:11:57;;;;;;;7.03;4.93;;;9.10;99.90;;;;;;4953436;28;20225;-66
2022/02/08 17:14:32;;;;;;;6.40;5.78;;;9.10;99.90;;;;;;4943375;29;20224;-66
2022/02/08 17:17:25;;;;;;;8.23;6.25;;;9.10;99.90;;;;;;4950876;28;20227;-65
2022/02/08 17:47:38;;;;;;;16.02;10.68;;;9.10;99.90;;;;;;4937192;29;20849;-66
2022/02/08 17:50:07;;;;;;;11.38;6.30;;;9.10;99.90;;;;;;4934619;29;20206;-66
2022/02/08 17:52:35;;;;;;;5.20;4.75;;;9.10;99.90;;;;;;4937447;29;20217;-66
2022/02/08 17:55:03;;;;;;;8.70;6.53;;;9.10;99.90;;;;;;4951355;28;20213;-66
2022/02/08 17:57:30;;;;;;;8.38;6.18;;;9.10;99.90;;;;;;4941154;28;20580;-67
2022/02/08 17:59:57;;;;;;;11.48;8.98;;;9.10;99.90;;;;;;4938443;29;20268;-66
2022/02/08 18:02:24;;;;;;;8.63;7.78;;;9.10;99.90;;;;;;4935367;29;20240;-66
2022/02/08 18:04:53;;;;;;;11.50;8.90;;;9.10;99.90;;;;;;4933125;29;20232;-66
2022/02/08 18:07:21;;;;;;;6.80;6.10;;;9.10;99.90;;;;;;4934506;29;20296;-66
2022/02/08 18:09:51;;;;;;;8.52;7.72;;;9.10;99.90;;;;;;4939859;28;20220;-66
2022/02/08 18:12:19;;;;;;;12.38;9.13;;;9.10;99.90;;;;;;4947124;29;20316;-66
2022/02/08 18:14:51;;;;;;;6.00;5.07;;;9.10;99.90;;;;;;4938217;28;20237;-66
2022/02/08 18:17:23;;;;;;;5.57;4.88;;;9.10;99.90;;;;;;4932978;29;20202;-66
2022/02/08 18:19:57;;;;;;;12.95;9.52;;;9.10;99.90;;;;;;4945753;29;20205;-66
2022/02/08 18:22:32;;;;;;;13.27;8.65;;;9.10;99.90;;;;;;4950406;28;20256;-66
2022/02/08 19:03:19;;;;;;;4.93;4.53;;;9.10;99.90;;;;;;4936710;29;20698;-66
2022/02/08 19:04:11;;;;;;;4.22;3.83;;;9.10;99.90;;;;;;4947139;28;20215;-67
2022/02/08 19:09:27;;;;;;;4.68;4.05;;;9.10;99.90;;;;;;4941046;29;20221;-66
2022/02/08 19:12:01;;;;;;;4.63;4.32;;;9.10;99.90;;;;;;4945408;28;20693;-68
2022/02/08 19:17:35;;;;;;;5.35;4.75;;;9.10;99.90;;;;;;4938456;28;20248;-66
2022/02/08 19:20:06;;;;;;;6.70;5.60;;;9.10;99.90;;;;;;4933593;29;20205;-66
2022/02/08 19:22:33;;;;;;;5.55;5.05;;;9.10;99.90;;;;;;4951774;29;20225;-67
2022/02/08 19:25:00;;;;;;;6.90;5.85;;;9.10;99.90;;;;;;4947694;28;20527;-66
2022/02/08 19:27:26;;;;;;;7.72;7.03;;;9.10;99.90;;;;;;4940559;29;20217;-67
2022/02/08 19:29:54;;;;;;;12.40;8.60;;;9.10;99.90;;;;;;4951129;29;20522;-66
2022/02/08 19:32:21;;;;;;;19.52;10.50;;;9.10;99.90;;;;;;4951405;28;20229;-67
2022/02/08 19:34:48;;;;;;;23.48;13.13;;;9.10;99.90;;;;;;4947468;29;20280;-66
2022/02/08 19:37:18;;;;;;;11.35;9.63;;;9.10;99.90;;;;;;4945882;28;20206;-67
2022/02/08 19:39:46;;;;;;;11.30;7.68;;;9.10;99.90;;;;;;4935352;29;20292;-67
2022/02/08 19:42:14;;;;;;;13.68;8.52;;;9.10;99.90;;;;;;4935188;28;20237;-67
2022/02/08 19:44:41;;;;;;;9.35;7.15;;;9.10;99.90;;;;;;4943478;28;20213;-67
2022/02/08 19:47:10;;;;;;;131.02;100.03;;;9.10;99.90;;;;;;4939307;28;20202;-67
2022/02/08 19:49:37;;;;;;;15.20;10.73;;;9.20;99.90;;;;;;4942906;28;20208;-67
2022/02/08 19:52:05;;;;;;;14.82;9.77;;;9.10;99.90;;;;;;4941645;29;20229;-67
2022/02/08 19:54:38;;;;;;;12.75;9.00;;;9.10;99.90;;;;;;4945601;29;20256;-67
2022/02/08 19:57:11;;;;;;;11.00;9.27;;;9.10;99.90;;;;;;4949274;29;20238;-66
2022/02/08 19:59:40;;;;;;;14.02;9.10;;;9.10;99.90;;;;;;4946644;28;20587;-67
2022/02/08 20:02:13;;;;;;;12.45;8.65;;;9.10;99.90;;;;;;4950557;28;20288;-67
2022/02/08 20:04:45;;;;;;;12.20;9.18;;;9.10;99.90;;;;;;4943348;29;20654;-67
2022/02/08 20:07:12;;;;;;;14.43;9.48;;;9.10;99.90;;;;;;4944301;29;20213;-67
2022/02/08 20:09:38;;;;;;;12.20;9.20;;;9.10;99.90;;;;;;4950887;28;20236;-65
2022/02/08 20:12:05;;;;;;;14.77;9.55;;;9.10;99.90;;;;;;4948881;29;20764;-65
2022/02/08 20:14:32;;;;;;;13.48;9.57;;;9.10;99.90;;;;;;4941424;29;20265;-66
2022/02/08 20:16:59;;;;;;;14.80;9.32;;;9.10;99.90;;;;;;4936592;29;20715;-66
2022/02/08 20:19:28;;;;;;;15.27;9.25;;;9.10;99.90;;;;;;4935367;29;20536;-67
2022/02/08 20:22:02;;;;;;;17.88;10.63;;;9.10;99.90;;;;;;4944353;29;20267;-67
2022/02/08 20:24:29;;;;;;;15.68;10.50;;;9.10;99.90;;;;;;4947843;28;20574;-67
2022/02/08 20:27:30;;;;;;;17.35;9.77;;;9.10;99.90;;;;;;4940618;29;20661;-67
2022/02/08 20:29:56;;;;;;;14.63;9.93;;;9.10;99.90;;;;;;4961394;28;20549;-67
2022/02/08 20:32:23;;;;;;;15.80;10.25;;;9.10;99.90;;;;;;4960375;28;20221;-67
2022/02/08 20:34:52;;;;;;;17.58;10.27;;;9.10;99.90;;;;;;4943063;28;20268;-67
2022/02/08 20:37:19;;;;;;;21.98;15.02;;;9.10;99.90;;;;;;4939922;29;20217;-67
2022/02/08 20:39:45;;;;;;;23.30;12.15;;;9.10;99.90;;;;;;4951432;28;20209;-66
2022/02/08 20:42:12;;;;;;;12.32;9.15;;;9.10;99.90;;;;;;4950922;28;20312;-67
2022/02/08 20:44:43;;;;;;;14.85;10.35;;;9.10;99.90;;;;;;4954394;28;20669;-67
2022/02/08 20:47:19;;;;;;;17.08;10.38;;;9.10;99.90;;;;;;4946581;29;20205;-67
2022/02/08 20:49:48;;;;;;;15.73;10.48;;;9.10;99.90;;;;;;4952868;29;20205;-67
2022/02/08 20:52:17;;;;;;;17.15;10.20;;;9.10;99.90;;;;;;4939985;28;20296;-67
2022/02/08 20:54:50;;;;;;;12.85;9.20;;;9.10;99.90;;;;;;4939600;29;20296;-67
2022/02/08 20:57:22;;;;;;;14.00;9.32;;;9.10;99.90;;;;;;4943019;29;20216;-67
2022/02/08 20:59:50;;;;;;;13.73;9.45;;;9.10;99.90;;;;;;4948269;28;20737;-67
2022/02/08 21:02:18;;;;;;;16.23;10.75;;;9.10;99.90;;;;;;4953132;28;20245;-67
2022/02/08 21:05:01;;;;;;;18.90;11.80;;;9.10;99.90;;;;;;4951908;29;20220;-67
2022/02/08 21:07:29;;;;;;;14.95;10.20;;;9.10;99.90;;;;;;4939337;29;20271;-66
2022/02/08 21:09:55;;;;;;;13.70;9.45;;;9.10;99.90;;;;;;4950120;29;20348;-67
2022/02/08 21:12:38;;;;;;;16.95;12.05;;;9.10;99.90;;;;;;4950054;28;20933;-67
2022/02/08 21:15:08;;;;;;;17.23;10.68;;;9.10;99.90;;;;;;4935780;29;20633;-66
2022/02/08 21:17:35;;;;;;;19.95;13.07;;;9.10;99.90;;;;;;4939830;29;20329;-67
2022/02/08 21:20:02;;;;;;;15.00;10.00;;;9.10;99.90;;;;;;4941136;28;20214;-67
2022/02/08 21:22:30;;;;;;;19.38;11.75;;;9.10;99.90;;;;;;4943866;29;20805;-66
2022/02/08 21:24:56;;;;;;;19.98;10.77;;;9.10;99.90;;;;;;4952272;28;20205;-66
2022/02/08 21:27:26;;;;;;;18.85;10.98;;;9.10;99.90;;;;;;4948839;28;20565;-67
2022/02/08 21:30:01;;;;;;;21.98;11.63;;;9.10;99.90;;;;;;4942466;28;20622;-66
2022/02/08 21:43:56;;;;;;;16.02;9.10;;;9.10;99.90;;;;;;4938020;29;20414;-66
2022/02/08 21:49:18;;;;;;;12.05;7.75;;;9.10;99.90;;;;;;4948161;29;20291;-67
2022/02/08 21:54:32;;;;;;;13.98;8.32;;;9.10;99.90;;;;;;4937008;29;20544;-66
2022/02/08 21:57:00;;;;;;;12.48;8.18;;;9.10;99.90;;;;;;4943637;29;20205;-66
2022/02/08 21:59:28;;;;;;;11.20;8.43;;;9.10;99.90;;;;;;4949054;28;20237;-67
